Kezdőlap
METAR-TAF:

METAR-TAF

Repülőterek :

Anderson, Indiana, Amerikai Egyesült Államok

földrajzi szélesség: 40-07N, földrajzi hosszúság: 085-37W, magasság: 280 m

Jelenlegi meteorológiai megfigyelések

A jelentés 15 órával és 7 perccel ezelõtt készült, 19:59 UTC
Észak-északkeleti szél 3 kt
Hőmérséklet 25°C
Páratartalom 41%
Légköri nyomás 1020 hPa
Látótávolság: 16.1 km
Derült ég

METAR: KAID 201959Z 03003KT 10SM CLR 25/11 A3013

Idő: 07:06 (11:06 UTC)


TAF: hiányzik

Meteorológiai megfigyelések és előrejelzések több, mint 4000 repülőtéren (METAR és TAF jelentéseket).

A térképen piros és sárga pontok jelzik az elérhető meteorológiai állomásokat.

Mozgassa az egeret a pont fölött, hogy megjelenjen az állomás neve.

Azután kattintson az időjárási megfigyelések és előrejelzések megtekintéséhez.

A térkép megváltoztatása: kattintson a fekete keresztel jelölt zöld gombra ráközelítéshez, a vonallal jelölt zöld gombra távolításhoz, vagy a zöld nyilakra a szomszédos térképek eléréséhez.


METAR-TAF: